sensor_id;sensor_type;location;lat;lon;timestamp;pressure;altitude;pressure_sealevel;temperature;humidity
17781;BME280;8498;52.516;13.790;2023-09-12T00:03:31;100668.59;;;17.81;100.00
17781;BME280;8498;52.516;13.790;2023-09-12T00:08:54;100671.91;;;17.75;100.00
17781;BME280;8498;52.516;13.790;2023-09-12T00:14:17;100670.78;;;17.68;100.00
17781;BME280;8498;52.516;13.790;2023-09-12T00:19:40;100674.31;;;17.69;100.00
17781;BME280;8498;52.516;13.790;2023-09-12T00:25:02;100672.25;;;17.63;100.00
17781;BME280;8498;52.516;13.790;2023-09-12T00:30:25;100676.75;;;17.62;100.00
17781;BME280;8498;52.516;13.790;2023-09-12T00:35:47;100678.50;;;17.53;100.00
17781;BME280;8498;52.516;13.790;2023-09-12T00:41:10;100680.75;;;17.48;100.00
17781;BME280;8498;52.516;13.790;2023-09-12T00:46:32;100675.41;;;17.48;100.00
17781;BME280;8498;52.516;13.790;2023-09-12T00:51:56;100681.50;;;17.41;100.00
17781;BME280;8498;52.516;13.790;2023-09-12T00:57:21;100684.25;;;17.31;100.00
17781;BME280;8498;52.516;13.790;2023-09-12T01:02:45;100679.72;;;17.32;100.00
17781;BME280;8498;52.516;13.790;2023-09-12T01:08:09;100680.56;;;17.32;100.00
17781;BME280;8498;52.516;13.790;2023-09-12T01:13:31;100687.34;;;17.27;100.00
17781;BME280;8498;52.516;13.790;2023-09-12T01:18:54;100689.91;;;17.28;100.00
17781;BME280;8498;52.516;13.790;2023-09-12T01:30:17;100688.09;;;17.19;100.00
17781;BME280;8498;52.516;13.790;2023-09-12T01:35:40;100683.34;;;17.13;100.00
17781;BME280;8498;52.516;13.790;2023-09-12T01:41:03;100683.63;;;17.10;100.00
17781;BME280;8498;52.516;13.790;2023-09-12T01:46:26;100670.94;;;17.02;100.00
17781;BME280;8498;52.516;13.790;2023-09-12T01:51:50;100675.72;;;16.99;100.00
17781;BME280;8498;52.516;13.790;2023-09-12T01:57:14;100689.88;;;17.01;100.00
17781;BME280;8498;52.516;13.790;2023-09-12T02:02:37;100679.25;;;16.99;100.00
17781;BME280;8498;52.516;13.790;2023-09-12T02:08:00;100676.72;;;16.98;100.00
17781;BME280;8498;52.516;13.790;2023-09-12T02:13:23;100675.31;;;16.94;100.00
17781;BME280;8498;52.516;13.790;2023-09-12T02:18:45;100670.25;;;16.91;100.00
17781;BME280;8498;52.516;13.790;2023-09-12T02:24:08;100669.25;;;16.82;100.00
17781;BME280;8498;52.516;13.790;2023-09-12T02:29:30;100670.56;;;16.78;100.00
17781;BME280;8498;52.516;13.790;2023-09-12T02:34:54;100662.94;;;16.73;100.00
17781;BME280;8498;52.516;13.790;2023-09-12T02:40:19;100667.75;;;16.79;100.00
17781;BME280;8498;52.516;13.790;2023-09-12T02:45:42;100661.09;;;16.74;100.00
17781;BME280;8498;52.516;13.790;2023-09-12T02:51:04;100650.50;;;16.72;100.00
17781;BME280;8498;52.516;13.790;2023-09-12T02:56:27;100651.34;;;16.73;100.00
17781;BME280;8498;52.516;13.790;2023-09-12T03:01:49;100657.59;;;16.64;100.00
17781;BME280;8498;52.516;13.790;2023-09-12T03:07:12;100662.38;;;16.60;100.00
17781;BME280;8498;52.516;13.790;2023-09-12T03:12:37;100652.50;;;16.51;100.00
17781;BME280;8498;52.516;13.790;2023-09-12T03:18:00;100648.16;;;16.50;100.00
17781;BME280;8498;52.516;13.790;2023-09-12T03:23:23;100640.78;;;16.52;100.00
17781;BME280;8498;52.516;13.790;2023-09-12T03:28:45;100641.34;;;16.46;100.00
17781;BME280;8498;52.516;13.790;2023-09-12T03:34:08;100630.91;;;16.43;100.00
17781;BME280;8498;52.516;13.790;2023-09-12T03:39:31;100627.97;;;16.36;100.00
17781;BME280;8498;52.516;13.790;2023-09-12T03:44:54;100630.78;;;16.35;100.00
17781;BME280;8498;52.516;13.790;2023-09-12T03:50:16;100632.63;;;16.34;100.00
17781;BME280;8498;52.516;13.790;2023-09-12T03:55:39;100648.13;;;16.31;100.00
17781;BME280;8498;52.516;13.790;2023-09-12T04:01:01;100644.06;;;16.27;100.00
17781;BME280;8498;52.516;13.790;2023-09-12T04:06:24;100644.06;;;16.27;100.00
17781;BME280;8498;52.516;13.790;2023-09-12T04:11:46;100645.31;;;16.23;100.00
17781;BME280;8498;52.516;13.790;2023-09-12T04:17:10;100651.41;;;16.15;100.00
17781;BME280;8498;52.516;13.790;2023-09-12T04:22:33;100649.28;;;16.19;100.00
17781;BME280;8498;52.516;13.790;2023-09-12T04:27:56;100654.06;;;16.25;100.00
17781;BME280;8498;52.516;13.790;2023-09-12T04:33:19;100652.78;;;16.09;100.00
17781;BME280;8498;52.516;13.790;2023-09-12T04:38:41;100658.31;;;16.08;100.00
17781;BME280;8498;52.516;13.790;2023-09-12T04:44:04;100667.75;;;16.12;100.00
17781;BME280;8498;52.516;13.790;2023-09-12T04:49:27;100667.19;;;16.08;100.00
17781;BME280;8498;52.516;13.790;2023-09-12T04:54:49;100652.25;;;16.15;100.00
17781;BME280;8498;52.516;13.790;2023-09-12T05:00:12;100665.91;;;16.12;100.00
17781;BME280;8498;52.516;13.790;2023-09-12T05:05:35;100665.91;;;16.12;100.00
17781;BME280;8498;52.516;13.790;2023-09-12T05:11:01;100664.53;;;16.28;100.00
17781;BME280;8498;52.516;13.790;2023-09-12T05:16:25;100672.44;;;16.39;100.00
17781;BME280;8498;52.516;13.790;2023-09-12T05:21:48;100670.84;;;16.46;100.00
17781;BME280;8498;52.516;13.790;2023-09-12T05:27:11;100682.84;;;16.51;100.00
17781;BME280;8498;52.516;13.790;2023-09-12T05:32:34;100686.09;;;16.65;100.00
17781;BME280;8498;52.516;13.790;2023-09-12T05:37:59;100682.84;;;16.80;100.00
17781;BME280;8498;52.516;13.790;2023-09-12T05:43:21;100689.72;;;16.93;100.00
17781;BME280;8498;52.516;13.790;2023-09-12T05:48:45;100688.69;;;17.13;100.00
17781;BME280;8498;52.516;13.790;2023-09-12T05:54:09;100688.06;;;17.29;100.00
17781;BME280;8498;52.516;13.790;2023-09-12T05:59:34;100688.72;;;17.40;100.00
17781;BME280;8498;52.516;13.790;2023-09-12T06:04:57;100688.91;;;17.56;100.00
17781;BME280;8498;52.516;13.790;2023-09-12T06:10:19;100688.59;;;17.69;100.00
17781;BME280;8498;52.516;13.790;2023-09-12T06:15:41;100687.25;;;17.83;100.00
17781;BME280;8498;52.516;13.790;2023-09-12T06:21:04;100691.09;;;17.98;100.00
17781;BME280;8498;52.516;13.790;2023-09-12T06:26:30;100688.28;;;18.17;100.00
17781;BME280;8498;52.516;13.790;2023-09-12T06:31:53;100686.22;;;18.29;100.00
17781;BME280;8498;52.516;13.790;2023-09-12T06:37:16;100686.03;;;18.48;100.00
17781;BME280;8498;52.516;13.790;2023-09-12T06:42:39;100685.13;;;18.75;100.00
17781;BME280;8498;52.516;13.790;2023-09-12T06:48:01;100693.72;;;19.04;100.00
17781;BME280;8498;52.516;13.790;2023-09-12T06:53:24;100710.78;;;19.39;100.00
17781;BME280;8498;52.516;13.790;2023-09-12T06:58:46;100710.91;;;19.63;100.00
17781;BME280;8498;52.516;13.790;2023-09-12T07:04:09;100714.06;;;19.93;100.00
17781;BME280;8498;52.516;13.790;2023-09-12T07:09:31;100719.50;;;20.17;100.00
17781;BME280;8498;52.516;13.790;2023-09-12T07:14:54;100728.53;;;20.50;98.27
17781;BME280;8498;52.516;13.790;2023-09-12T07:20:18;100724.47;;;20.78;92.82
17781;BME280;8498;52.516;13.790;2023-09-12T07:25:42;100728.00;;;21.03;89.83
17781;BME280;8498;52.516;13.790;2023-09-12T07:31:04;100720.22;;;21.33;87.68
17781;BME280;8498;52.516;13.790;2023-09-12T07:36:27;100719.59;;;21.70;84.01
17781;BME280;8498;52.516;13.790;2023-09-12T07:41:50;100709.88;;;21.83;82.33
17781;BME280;8498;52.516;13.790;2023-09-12T07:47:13;100717.56;;;22.11;78.72
17781;BME280;8498;52.516;13.790;2023-09-12T07:52:36;100709.75;;;22.39;76.31
17781;BME280;8498;52.516;13.790;2023-09-12T07:57:59;100696.94;;;22.55;75.95
17781;BME280;8498;52.516;13.790;2023-09-12T08:03:21;100711.53;;;22.92;72.81
17781;BME280;8498;52.516;13.790;2023-09-12T08:08:43;100709.63;;;23.15;72.42
17781;BME280;8498;52.516;13.790;2023-09-12T08:14:07;100708.50;;;23.39;69.03
17781;BME280;8498;52.516;13.790;2023-09-12T08:19:29;100706.63;;;23.69;69.59
17781;BME280;8498;52.516;13.790;2023-09-12T08:24:52;100709.22;;;24.06;66.44
17781;BME280;8498;52.516;13.790;2023-09-12T08:30:15;100705.06;;;24.25;64.43
17781;BME280;8498;52.516;13.790;2023-09-12T08:35:37;100699.97;;;24.58;63.60
17781;BME280;8498;52.516;13.790;2023-09-12T08:41:00;100709.25;;;24.70;61.32
17781;BME280;8498;52.516;13.790;2023-09-12T08:46:23;100711.81;;;25.28;59.96
17781;BME280;8498;52.516;13.790;2023-09-12T08:51:45;100713.72;;;25.62;58.00
17781;BME280;8498;52.516;13.790;2023-09-12T08:57:09;100706.66;;;25.74;56.17
17781;BME280;8498;52.516;13.790;2023-09-12T09:02:34;100707.34;;;25.89;56.24
17781;BME280;8498;52.516;13.790;2023-09-12T09:07:57;100702.00;;;26.15;54.35
17781;BME280;8498;52.516;13.790;2023-09-12T09:13:21;100707.31;;;26.37;54.72
17781;BME280;8498;52.516;13.790;2023-09-12T09:24:20;100705.28;;;27.04;51.90
17781;BME280;8498;52.516;13.790;2023-09-12T09:29:47;100706.03;;;27.51;50.72
17781;BME280;8498;52.516;13.790;2023-09-12T09:35:11;100706.38;;;27.74;50.52
17781;BME280;8498;52.516;13.790;2023-09-12T09:40:34;100699.06;;;28.13;49.42
17781;BME280;8498;52.516;13.790;2023-09-12T09:45:58;100706.03;;;28.47;48.77
17781;BME280;8498;52.516;13.790;2023-09-12T09:51:21;100710.00;;;28.76;47.52
17781;BME280;8498;52.516;13.790;2023-09-12T09:56:48;100707.31;;;29.01;46.17
17781;BME280;8498;52.516;13.790;2023-09-12T10:02:16;100709.69;;;29.15;45.72
17781;BME280;8498;52.516;13.790;2023-09-12T10:07:42;100710.16;;;29.37;44.79
17781;BME280;8498;52.516;13.790;2023-09-12T10:13:08;100703.59;;;29.75;43.10
17781;BME280;8498;52.516;13.790;2023-09-12T10:18:37;100697.44;;;29.98;43.51
17781;BME280;8498;52.516;13.790;2023-09-12T10:24:03;100693.25;;;30.25;42.17
17781;BME280;8498;52.516;13.790;2023-09-12T10:29:26;100691.50;;;30.42;43.49
17781;BME280;8498;52.516;13.790;2023-09-12T10:34:50;100692.31;;;30.31;44.18
17781;BME280;8498;52.516;13.790;2023-09-12T10:40:14;100692.97;;;30.15;42.77
17781;BME280;8498;52.516;13.790;2023-09-12T10:45:40;100678.88;;;30.41;44.85
17781;BME280;8498;52.516;13.790;2023-09-12T10:51:03;100678.47;;;30.56;43.38
17781;BME280;8498;52.516;13.790;2023-09-12T10:56:27;100679.19;;;30.75;42.89
17781;BME280;8498;52.516;13.790;2023-09-12T11:01:54;100664.19;;;30.89;41.70
17781;BME280;8498;52.516;13.790;2023-09-12T11:12:58;100672.53;;;31.06;42.63
17781;BME280;8498;52.516;13.790;2023-09-12T11:18:21;100679.84;;;31.23;42.66
17781;BME280;8498;52.516;13.790;2023-09-12T11:23:53;100668.59;;;31.36;41.85
17781;BME280;8498;52.516;13.790;2023-09-12T11:29:16;100667.84;;;31.53;41.93
17781;BME280;8498;52.516;13.790;2023-09-12T11:34:41;100666.19;;;31.63;42.08
17781;BME280;8498;52.516;13.790;2023-09-12T11:45:33;100662.22;;;31.99;39.74
17781;BME280;8498;52.516;13.790;2023-09-12T11:50:56;100645.59;;;32.18;38.83
17781;BME280;8498;52.516;13.790;2023-09-12T11:56:19;100641.22;;;32.22;40.50
17781;BME280;8498;52.516;13.790;2023-09-12T12:01:41;100644.97;;;32.16;40.35
17781;BME280;8498;52.516;13.790;2023-09-12T12:07:04;100650.06;;;31.95;41.55
17781;BME280;8498;52.516;13.790;2023-09-12T12:12:28;100648.50;;;31.48;42.03
17781;BME280;8498;52.516;13.790;2023-09-12T12:17:54;100646.13;;;31.63;41.95
17781;BME280;8498;52.516;13.790;2023-09-12T12:23:17;100636.16;;;32.02;41.49
17781;BME280;8498;52.516;13.790;2023-09-12T12:28:40;100633.38;;;32.14;40.21
17781;BME280;8498;52.516;13.790;2023-09-12T12:34:04;100626.06;;;32.19;39.68
17781;BME280;8498;52.516;13.790;2023-09-12T12:39:47;100645.41;;;31.96;39.67
17781;BME280;8498;52.516;13.790;2023-09-12T12:45:14;100632.88;;;32.17;39.57
17781;BME280;8498;52.516;13.790;2023-09-12T12:50:37;100631.00;;;32.67;39.17
17781;BME280;8498;52.516;13.790;2023-09-12T12:56:00;100607.53;;;32.76;40.72
17781;BME280;8498;52.516;13.790;2023-09-12T13:01:24;100612.81;;;33.00;38.51
17781;BME280;8498;52.516;13.790;2023-09-12T13:06:47;100618.97;;;33.07;36.79
17781;BME280;8498;52.516;13.790;2023-09-12T13:12:09;100623.78;;;33.16;38.37
17781;BME280;8498;52.516;13.790;2023-09-12T13:17:32;100618.44;;;32.55;40.12
17781;BME280;8498;52.516;13.790;2023-09-12T13:22:55;100613.00;;;32.26;40.61
17781;BME280;8498;52.516;13.790;2023-09-12T13:28:18;100620.91;;;32.23;38.81
17781;BME280;8498;52.516;13.790;2023-09-12T13:33:40;100620.75;;;32.01;41.89
17781;BME280;8498;52.516;13.790;2023-09-12T13:39:06;100620.53;;;31.62;43.06
17781;BME280;8498;52.516;13.790;2023-09-12T13:44:29;100607.19;;;32.11;39.98
17781;BME280;8498;52.516;13.790;2023-09-12T13:49:52;100606.72;;;32.14;40.83
17781;BME280;8498;52.516;13.790;2023-09-12T13:55:16;100599.50;;;32.25;39.29
17781;BME280;8498;52.516;13.790;2023-09-12T14:00:58;100596.34;;;32.33;40.12
17781;BME280;8498;52.516;13.790;2023-09-12T14:06:20;100599.81;;;31.55;41.62
17781;BME280;8498;52.516;13.790;2023-09-12T14:11:43;100599.59;;;32.01;41.72
17781;BME280;8498;52.516;13.790;2023-09-12T14:17:07;100597.88;;;31.95;42.14
17781;BME280;8498;52.516;13.790;2023-09-12T14:22:30;100606.59;;;31.92;41.35
17781;BME280;8498;52.516;13.790;2023-09-12T14:27:53;100598.84;;;32.18;41.61
17781;BME280;8498;52.516;13.790;2023-09-12T14:33:16;100605.09;;;32.01;41.73
17781;BME280;8498;52.516;13.790;2023-09-12T14:38:40;100597.69;;;32.02;40.48
17781;BME280;8498;52.516;13.790;2023-09-12T14:44:03;100597.09;;;31.83;42.99
17781;BME280;8498;52.516;13.790;2023-09-12T14:49:27;100594.19;;;31.50;42.24
17781;BME280;8498;52.516;13.790;2023-09-12T14:54:53;100592.50;;;31.20;46.63
17781;BME280;8498;52.516;13.790;2023-09-12T15:00:17;100599.19;;;31.24;45.06
17781;BME280;8498;52.516;13.790;2023-09-12T15:05:40;100604.06;;;30.99;46.32
17781;BME280;8498;52.516;13.790;2023-09-12T15:11:03;100613.63;;;31.20;42.69
17781;BME280;8498;52.516;13.790;2023-09-12T15:16:26;100602.78;;;31.13;45.35
17781;BME280;8498;52.516;13.790;2023-09-12T15:21:48;100616.50;;;31.13;44.45
17781;BME280;8498;52.516;13.790;2023-09-12T15:33:54;100605.59;;;30.95;44.58
17781;BME280;8498;52.516;13.790;2023-09-12T15:39:18;100595.25;;;30.85;43.48
17781;BME280;8498;52.516;13.790;2023-09-12T15:44:41;100598.34;;;30.89;43.96
17781;BME280;8498;52.516;13.790;2023-09-12T15:50:23;100591.19;;;30.76;45.09
17781;BME280;8498;52.516;13.790;2023-09-12T15:55:45;100599.41;;;30.41;46.44
17781;BME280;8498;52.516;13.790;2023-09-12T16:01:10;100602.16;;;29.81;47.56
17781;BME280;8498;52.516;13.790;2023-09-12T16:06:34;100601.69;;;29.36;49.00
17781;BME280;8498;52.516;13.790;2023-09-12T16:11:56;100601.31;;;28.96;50.28
17781;BME280;8498;52.516;13.790;2023-09-12T16:17:19;100598.38;;;28.73;51.96
17781;BME280;8498;52.516;13.790;2023-09-12T16:22:42;100590.13;;;28.55;51.48
17781;BME280;8498;52.516;13.790;2023-09-12T16:28:05;100605.53;;;28.49;53.99
17781;BME280;8498;52.516;13.790;2023-09-12T16:33:28;100603.22;;;28.21;54.61
17781;BME280;8498;52.516;13.790;2023-09-12T16:38:50;100596.59;;;28.04;56.65
17781;BME280;8498;52.516;13.790;2023-09-12T16:44:13;100599.66;;;27.83;57.89
17781;BME280;8498;52.516;13.790;2023-09-12T16:49:35;100605.22;;;27.69;57.81
17781;BME280;8498;52.516;13.790;2023-09-12T16:55:01;100615.38;;;27.42;58.40
17781;BME280;8498;52.516;13.790;2023-09-12T17:00:24;100617.50;;;27.34;57.57
17781;BME280;8498;52.516;13.790;2023-09-12T17:05:46;100623.44;;;27.18;58.51
17781;BME280;8498;52.516;13.790;2023-09-12T17:11:08;100616.97;;;27.06;58.82
17781;BME280;8498;52.516;13.790;2023-09-12T17:16:31;100622.03;;;26.76;61.98
17781;BME280;8498;52.516;13.790;2023-09-12T17:21:53;100628.53;;;26.55;61.80
17781;BME280;8498;52.516;13.790;2023-09-12T17:27:16;100635.84;;;26.41;63.30
17781;BME280;8498;52.516;13.790;2023-09-12T17:32:38;100639.38;;;26.22;63.67
17781;BME280;8498;52.516;13.790;2023-09-12T17:38:01;100647.31;;;26.10;64.70
17781;BME280;8498;52.516;13.790;2023-09-12T17:43:23;100651.03;;;25.96;63.88
17781;BME280;8498;52.516;13.790;2023-09-12T17:48:46;100647.41;;;25.76;66.25
17781;BME280;8498;52.516;13.790;2023-09-12T17:54:08;100645.59;;;25.48;68.19
17781;BME280;8498;52.516;13.790;2023-09-12T17:59:31;100657.44;;;25.28;69.08
17781;BME280;8498;52.516;13.790;2023-09-12T18:04:53;100654.44;;;25.16;69.29
17781;BME280;8498;52.516;13.790;2023-09-12T18:10:16;100658.13;;;25.02;70.52
17781;BME280;8498;52.516;13.790;2023-09-12T18:15:39;100668.09;;;24.95;70.53
17781;BME280;8498;52.516;13.790;2023-09-12T18:21:01;100662.50;;;24.81;70.04
17781;BME280;8498;52.516;13.790;2023-09-12T18:26:23;100660.78;;;24.74;71.04
17781;BME280;8498;52.516;13.790;2023-09-12T18:31:48;100667.88;;;24.47;73.88
17781;BME280;8498;52.516;13.790;2023-09-12T18:37:11;100678.28;;;24.22;75.22
17781;BME280;8498;52.516;13.790;2023-09-12T18:42:34;100672.63;;;24.02;76.99
17781;BME280;8498;52.516;13.790;2023-09-12T18:47:57;100690.16;;;23.85;77.82
17781;BME280;8498;52.516;13.790;2023-09-12T18:53:20;100701.03;;;23.70;79.00
17781;BME280;8498;52.516;13.790;2023-09-12T18:58:42;100688.34;;;23.56;79.98
17781;BME280;8498;52.516;13.790;2023-09-12T19:04:24;100686.53;;;23.49;79.65
17781;BME280;8498;52.516;13.790;2023-09-12T19:09:48;100694.69;;;23.34;81.23
17781;BME280;8498;52.516;13.790;2023-09-12T19:15:10;100699.53;;;23.24;82.38
17781;BME280;8498;52.516;13.790;2023-09-12T19:20:34;100693.91;;;23.11;82.92
17781;BME280;8498;52.516;13.790;2023-09-12T19:25:57;100708.09;;;22.98;83.31
17781;BME280;8498;52.516;13.790;2023-09-12T19:31:19;100712.94;;;22.88;84.81
17781;BME280;8498;52.516;13.790;2023-09-12T19:36:42;100713.38;;;22.77;85.49
17781;BME280;8498;52.516;13.790;2023-09-12T19:42:06;100708.34;;;22.65;85.86
17781;BME280;8498;52.516;13.790;2023-09-12T19:47:29;100704.38;;;22.53;85.99
17781;BME280;8498;52.516;13.790;2023-09-12T19:53:08;100703.50;;;22.38;87.67
17781;BME280;8498;52.516;13.790;2023-09-12T19:58:31;100703.06;;;22.26;88.26
17781;BME280;8498;52.516;13.790;2023-09-12T20:03:55;100691.13;;;22.21;89.19
17781;BME280;8498;52.516;13.790;2023-09-12T20:09:18;100692.53;;;22.09;89.10
17781;BME280;8498;52.516;13.790;2023-09-12T20:14:40;100689.50;;;22.04;89.55
17781;BME280;8498;52.516;13.790;2023-09-12T20:20:03;100692.78;;;21.99;88.80
17781;BME280;8498;52.516;13.790;2023-09-12T20:25:25;100688.25;;;21.83;90.00
17781;BME280;8498;52.516;13.790;2023-09-12T20:30:47;100678.19;;;21.69;90.79
17781;BME280;8498;52.516;13.790;2023-09-12T20:36:10;100682.44;;;21.64;91.18
17781;BME280;8498;52.516;13.790;2023-09-12T20:41:33;100682.97;;;21.51;92.60
17781;BME280;8498;52.516;13.790;2023-09-12T20:52:19;100682.72;;;21.38;92.26
17781;BME280;8498;52.516;13.790;2023-09-12T20:57:42;100683.72;;;21.29;92.57
17781;BME280;8498;52.516;13.790;2023-09-12T21:03:04;100690.53;;;21.16;94.33
17781;BME280;8498;52.516;13.790;2023-09-12T21:08:28;100691.19;;;21.10;94.37
17781;BME280;8498;52.516;13.790;2023-09-12T21:13:51;100689.88;;;21.06;94.00
17781;BME280;8498;52.516;13.790;2023-09-12T21:19:14;100685.47;;;20.97;94.80
17781;BME280;8498;52.516;13.790;2023-09-12T21:24:36;100681.94;;;20.88;96.15
17781;BME280;8498;52.516;13.790;2023-09-12T21:29:58;100671.50;;;20.85;96.59
17781;BME280;8498;52.516;13.790;2023-09-12T21:35:21;100676.41;;;20.82;97.39
17781;BME280;8498;52.516;13.790;2023-09-12T21:40:44;100664.91;;;20.80;98.20
17781;BME280;8498;52.516;13.790;2023-09-12T21:46:06;100651.06;;;20.83;97.78
17781;BME280;8498;52.516;13.790;2023-09-12T21:51:29;100661.19;;;20.81;96.47
17781;BME280;8498;52.516;13.790;2023-09-12T21:56:51;100667.63;;;20.80;95.96
17781;BME280;8498;52.516;13.790;2023-09-12T22:02:14;100657.69;;;20.72;95.71
17781;BME280;8498;52.516;13.790;2023-09-12T22:07:37;100657.88;;;20.55;97.71
17781;BME280;8498;52.516;13.790;2023-09-12T22:12:59;100656.84;;;20.47;99.44
17781;BME280;8498;52.516;13.790;2023-09-12T22:18:22;100654.66;;;20.43;98.98
17781;BME280;8498;52.516;13.790;2023-09-12T22:23:49;100647.38;;;20.35;99.77
17781;BME280;8498;52.516;13.790;2023-09-12T22:29:11;100646.66;;;20.25;100.00
17781;BME280;8498;52.516;13.790;2023-09-12T22:34:34;100643.66;;;20.28;99.68
17781;BME280;8498;52.516;13.790;2023-09-12T22:39:58;100640.59;;;20.15;100.00
17781;BME280;8498;52.516;13.790;2023-09-12T22:45:20;100643.81;;;20.10;100.00
17781;BME280;8498;52.516;13.790;2023-09-12T22:50:46;100652.06;;;20.01;100.00
17781;BME280;8498;52.516;13.790;2023-09-12T22:56:08;100665.34;;;19.94;100.00
17781;BME280;8498;52.516;13.790;2023-09-12T23:01:31;100653.22;;;19.90;100.00
17781;BME280;8498;52.516;13.790;2023-09-12T23:06:54;100643.44;;;19.81;100.00
17781;BME280;8498;52.516;13.790;2023-09-12T23:12:17;100623.03;;;19.78;100.00
17781;BME280;8498;52.516;13.790;2023-09-12T23:17:39;100623.34;;;19.75;100.00
17781;BME280;8498;52.516;13.790;2023-09-12T23:23:01;100608.19;;;19.74;100.00
17781;BME280;8498;52.516;13.790;2023-09-12T23:28:25;100601.41;;;19.62;100.00
17781;BME280;8498;52.516;13.790;2023-09-12T23:33:49;100583.38;;;19.55;100.00
17781;BME280;8498;52.516;13.790;2023-09-12T23:39:12;100586.06;;;19.55;100.00
17781;BME280;8498;52.516;13.790;2023-09-12T23:44:34;100578.66;;;19.49;100.00
17781;BME280;8498;52.516;13.790;2023-09-12T23:49:56;100582.81;;;19.43;100.00
17781;BME280;8498;52.516;13.790;2023-09-12T23:55:19;100581.94;;;19.34;100.00
